createdAt,value
2019-05-12T00:01:21.424Z,7.47
2019-05-12T00:03:48.590Z,6.77
2019-05-12T00:06:17.515Z,7.77
2019-05-12T00:08:43.850Z,7.20
2019-05-12T00:11:10.700Z,6.60
2019-05-12T00:13:38.487Z,6.90
2019-05-12T00:16:05.604Z,6.83
2019-05-12T00:18:32.437Z,7.30
2019-05-12T00:20:59.278Z,7.20
2019-05-12T00:23:30.334Z,6.77
2019-05-12T00:25:55.122Z,6.60
2019-05-12T00:28:21.955Z,6.57
2019-05-12T00:30:48.862Z,7.17
2019-05-12T00:33:17.818Z,7.13
2019-05-12T00:35:44.322Z,6.93
2019-05-12T00:38:11.165Z,7.57
2019-05-12T00:40:39.179Z,7.63
2019-05-12T00:43:08.696Z,6.97
2019-05-12T00:45:35.078Z,6.83
2019-05-12T00:48:01.913Z,6.93
2019-05-12T00:50:29.124Z,7.80
2019-05-12T00:52:58.043Z,7.80
2019-05-12T00:55:24.690Z,7.50
2019-05-12T00:57:51.531Z,6.73
2019-05-12T01:00:18.374Z,7.37
2019-05-12T01:02:45.223Z,7.63
2019-05-12T01:05:12.065Z,7.63
2019-05-12T01:07:39.009Z,6.73
2019-05-12T01:10:05.744Z,7.93
2019-05-12T01:12:32.685Z,6.50
2019-05-12T01:14:59.528Z,7.30
2019-05-12T01:17:28.194Z,6.60
2019-05-12T01:19:54.744Z,6.80
2019-05-12T01:22:21.586Z,6.20
2019-05-12T01:24:48.431Z,6.60
2019-05-12T01:27:15.269Z,6.93
2019-05-12T01:29:42.062Z,7.50
2019-05-12T01:32:08.857Z,7.37
2019-05-12T01:34:38.170Z,6.23
2019-05-12T01:37:04.274Z,6.23
2019-05-12T01:39:31.013Z,7.07
2019-05-12T01:41:58.730Z,6.57
2019-05-12T01:44:25.727Z,6.20
2019-05-12T01:46:52.561Z,6.93
2019-05-12T01:49:19.403Z,6.63
2019-05-12T01:51:47.643Z,7.37
2019-05-12T01:54:15.201Z,6.37
2019-05-12T01:56:42.079Z,7.00
2019-05-12T01:59:08.931Z,5.73
2019-05-12T02:01:35.761Z,6.70
2019-05-12T02:04:02.502Z,6.43
2019-05-12T02:06:29.345Z,7.20
2019-05-12T02:08:58.049Z,6.23
2019-05-12T02:11:24.562Z,5.80
2019-05-12T02:13:51.719Z,6.10
2019-05-12T02:16:18.931Z,6.83
2019-05-12T02:18:46.013Z,6.60
2019-05-12T02:21:12.805Z,7.30
2019-05-12T02:23:39.614Z,5.67
2019-05-12T02:26:08.272Z,6.50
2019-05-12T02:28:34.864Z,7.63
2019-05-12T02:31:01.652Z,7.53
2019-05-12T02:33:28.494Z,6.73
2019-05-12T02:35:55.337Z,7.27
2019-05-12T02:38:24.978Z,7.30
2019-05-12T02:40:50.659Z,7.30
2019-05-12T02:43:17.449Z,7.00
2019-05-12T02:45:44.725Z,7.43
2019-05-12T02:48:14.461Z,8.23
2019-05-12T02:50:40.293Z,6.77
2019-05-12T02:53:07.178Z,6.97
2019-05-12T02:55:34.997Z,6.60
2019-05-12T02:58:04.931Z,7.17
2019-05-12T03:00:30.927Z,7.47
2019-05-12T03:02:57.660Z,8.00
2019-05-12T03:05:24.944Z,7.73
2019-05-12T03:07:55.125Z,7.90
2019-05-12T03:10:20.546Z,8.63
2019-05-12T03:12:47.397Z,8.00
2019-05-12T03:15:15.362Z,9.83
2019-05-12T03:17:44.341Z,9.60
2019-05-12T03:22:44.815Z,8.73
2019-05-12T03:25:19.852Z,8.73
2019-05-12T03:27:39.607Z,8.60
2019-05-12T03:30:11.412Z,9.23
2019-05-12T03:32:37.897Z,9.77
2019-05-12T03:35:08.915Z,8.03
2019-05-12T03:37:35.188Z,9.23
2019-05-12T03:40:00.560Z,8.63
2019-05-12T03:42:28.079Z,9.03
2019-05-12T03:44:54.890Z,8.03
2019-05-12T03:47:24.781Z,7.17
2019-05-12T03:49:50.301Z,7.67
2019-05-12T03:52:17.304Z,6.43
2019-05-12T03:54:45.144Z,7.50
2019-05-12T03:57:14.894Z,7.10
2019-05-12T03:59:40.618Z,7.73
2019-05-12T04:02:07.366Z,8.03
2019-05-12T04:04:34.896Z,7.30
2019-05-12T04:07:04.910Z,7.50
2019-05-12T04:09:30.140Z,7.57
2019-05-12T04:11:56.984Z,7.23
2019-05-12T04:14:25.183Z,7.53
2019-05-12T04:16:54.933Z,6.77
2019-05-12T04:19:20.681Z,7.90
2019-05-12T04:21:47.520Z,7.33
2019-05-12T04:24:14.520Z,7.90
2019-05-12T04:26:44.651Z,6.73
2019-05-12T04:29:09.738Z,7.47
2019-05-12T04:31:36.529Z,7.00
2019-05-12T04:34:05.168Z,8.37
2019-05-12T04:36:35.183Z,7.47
2019-05-12T04:39:00.326Z,7.70
2019-05-12T04:41:27.166Z,7.17
2019-05-12T04:43:55.046Z,7.33
2019-05-12T04:46:25.023Z,6.73
2019-05-12T04:48:50.462Z,7.50
2019-05-12T04:51:17.300Z,6.30
2019-05-12T04:53:44.871Z,6.57
2019-05-12T04:56:19.293Z,6.97
2019-05-12T04:58:40.695Z,8.17
2019-05-12T05:01:07.429Z,6.60
2019-05-12T05:03:35.070Z,7.10
2019-05-12T05:06:04.469Z,8.17
2019-05-12T05:08:30.414Z,5.97
2019-05-12T05:10:57.255Z,9.23
2019-05-12T05:13:24.514Z,7.30
2019-05-12T05:15:51.422Z,6.70
2019-05-12T05:18:18.300Z,7.40
2019-05-12T05:20:45.146Z,6.60
2019-05-12T05:23:13.929Z,7.90
2019-05-12T05:25:40.665Z,6.13
2019-05-12T05:28:07.760Z,7.90
2019-05-12T05:30:34.563Z,7.50
2019-05-12T05:33:03.706Z,6.70
2019-05-12T05:35:35.058Z,7.50
2019-05-12T05:37:58.764Z,6.77
2019-05-12T05:40:30.132Z,8.30
2019-05-12T05:42:54.324Z,8.17
2019-05-12T05:45:24.207Z,7.27
2019-05-12T05:47:49.710Z,7.20
2019-05-12T05:50:18.416Z,8.73
2019-05-12T05:52:44.957Z,8.10
2019-05-12T05:55:19.862Z,8.30
2019-05-12T05:57:44.395Z,7.40
2019-05-12T06:00:17.391Z,7.13
2019-05-12T06:02:40.442Z,7.67
2019-05-12T06:05:07.432Z,8.20
2019-05-12T06:07:38.599Z,7.70
2019-05-12T06:10:04.090Z,9.10
2019-05-12T06:12:32.900Z,8.20
2019-05-12T06:14:59.874Z,7.87
2019-05-12T06:17:26.894Z,8.63
2019-05-12T06:19:53.947Z,9.20
2019-05-12T06:22:20.656Z,8.33
2019-05-12T06:24:53.745Z,7.43
2019-05-12T06:27:20.905Z,8.57
2019-05-12T06:29:46.909Z,7.10
2019-05-12T06:32:14.220Z,7.07
2019-05-12T06:34:43.441Z,7.77
2019-05-12T06:37:16.956Z,7.43
2019-05-12T06:39:37.963Z,9.10
2019-05-12T06:42:12.365Z,6.53
2019-05-12T06:44:34.306Z,7.27
2019-05-12T06:47:03.407Z,8.47
2019-05-12T06:49:29.941Z,8.27
2019-05-12T06:52:01.441Z,9.40
2019-05-12T06:54:26.483Z,7.60
2019-05-12T06:57:04.353Z,8.07
2019-05-12T06:59:23.780Z,8.13
2019-05-12T07:01:56.122Z,8.05
2019-05-12T07:04:21.276Z,7.67
2019-05-12T07:06:49.811Z,9.13
2019-05-12T07:09:25.116Z,6.80
2019-05-12T07:11:53.127Z,7.53
2019-05-12T07:14:22.134Z,7.65
2019-05-12T07:16:43.758Z,7.65
2019-05-12T07:19:20.544Z,7.72
2019-05-12T07:21:38.754Z,8.13
2019-05-12T07:24:10.946Z,8.13
2019-05-12T07:26:34.381Z,7.78
2019-05-12T07:29:01.218Z,7.58
2019-05-12T07:31:28.055Z,7.25
2019-05-12T07:33:54.906Z,7.28
2019-05-12T07:36:24.123Z,7.97
2019-05-12T07:38:50.323Z,7.90
2019-05-12T07:41:17.063Z,7.00
2019-05-12T07:43:44.445Z,7.12
2019-05-12T07:46:13.374Z,6.35
2019-05-12T07:48:45.487Z,5.72
2019-05-12T07:51:08.426Z,5.42
2019-05-12T07:53:35.266Z,5.53
2019-05-12T07:56:04.139Z,5.35
2019-05-12T07:58:30.508Z,5.25
2019-05-12T08:01:02.564Z,4.08
2019-05-12T08:03:25.808Z,5.35
2019-05-12T08:05:57.450Z,4.37
2019-05-12T08:08:23.492Z,3.80
2019-05-12T08:10:51.325Z,4.47
2019-05-12T08:13:18.772Z,4.28
2019-05-12T08:15:50.205Z,4.62
2019-05-12T08:18:14.444Z,5.10
2019-05-12T08:20:43.401Z,4.67
2019-05-12T08:23:10.713Z,5.55
2019-05-12T08:25:37.494Z,5.10
2019-05-12T08:28:14.706Z,5.58
2019-05-12T08:30:33.628Z,6.90
2019-05-12T08:33:03.844Z,6.75
2019-05-12T08:35:34.627Z,6.42
2019-05-12T08:37:57.818Z,7.95
2019-05-12T08:40:24.873Z,8.43
2019-05-12T08:42:53.875Z,8.25
2019-05-12T08:45:27.477Z,8.18
2019-05-12T08:47:48.886Z,8.08
2019-05-12T08:50:15.663Z,8.63
2019-05-12T08:52:44.315Z,7.40
2019-05-12T08:55:13.851Z,6.80
2019-05-12T08:57:44.409Z,7.47
2019-05-12T09:00:08.716Z,7.17
2019-05-12T09:02:39.872Z,5.15
2019-05-12T09:05:04.792Z,5.30
2019-05-12T09:07:35.831Z,5.35
2019-05-12T09:10:00.227Z,4.75
2019-05-12T09:12:27.072Z,5.37
2019-05-12T09:14:54.586Z,4.78
2019-05-12T09:17:23.239Z,4.60
2019-05-12T09:19:54.969Z,4.72
2019-05-12T09:22:20.831Z,4.12
2019-05-12T09:24:47.022Z,4.37
2019-05-12T09:27:13.850Z,4.25
2019-05-12T09:29:40.705Z,3.50
2019-05-12T09:32:09.514Z,4.20
2019-05-12T09:34:35.920Z,4.45
2019-05-12T09:37:04.056Z,4.50
2019-05-12T09:39:34.045Z,4.95
2019-05-12T09:41:59.347Z,5.75
2019-05-12T09:44:30.323Z,5.25
2019-05-12T09:46:54.727Z,4.90
2019-05-12T09:49:22.829Z,5.22
2019-05-12T09:51:50.411Z,5.70
2019-05-12T09:54:17.199Z,4.97
2019-05-12T09:56:44.283Z,5.42
2019-05-12T09:59:19.079Z,5.95
2019-05-12T10:01:40.666Z,6.03
2019-05-12T10:04:10.459Z,7.33
2019-05-12T10:06:36.634Z,7.65
2019-05-12T10:09:03.555Z,7.47
2019-05-12T10:11:30.417Z,7.85
2019-05-12T10:14:00.177Z,8.38
2019-05-12T10:16:25.738Z,7.80
2019-05-12T10:18:52.789Z,7.42
2019-05-12T10:21:19.731Z,8.05
2019-05-12T10:23:51.150Z,9.25
2019-05-12T10:26:14.974Z,7.90
2019-05-12T10:28:43.772Z,7.97
2019-05-12T10:31:10.274Z,6.85
2019-05-12T10:33:37.120Z,7.33
2019-05-12T10:36:08.291Z,6.42
2019-05-12T10:38:34.334Z,6.37
2019-05-12T10:41:01.219Z,5.72
2019-05-12T10:43:28.060Z,5.33
2019-05-12T10:45:54.902Z,5.60
2019-05-12T10:48:23.412Z,4.40
2019-05-12T10:50:50.242Z,4.53
2019-05-12T10:53:17.930Z,3.85
2019-05-12T10:55:44.726Z,3.80
2019-05-12T10:58:11.567Z,3.77
2019-05-12T11:00:38.410Z,3.90
2019-05-12T11:03:12.152Z,4.17
2019-05-12T11:05:34.218Z,6.20
2019-05-12T11:08:06.496Z,4.20
2019-05-12T11:10:29.778Z,4.72
2019-05-12T11:12:59.244Z,4.25
2019-05-12T11:15:25.128Z,4.95
2019-05-12T11:17:53.414Z,5.97
2019-05-12T11:20:20.414Z,7.33
2019-05-12T11:22:47.156Z,10.35
2019-05-12T11:25:14.440Z,11.28
2019-05-12T11:27:43.589Z,13.05
2019-05-12T11:30:09.829Z,13.60
2019-05-12T11:32:38.045Z,13.05
2019-05-12T11:35:04.949Z,12.40
2019-05-12T11:37:33.708Z,12.28
2019-05-12T11:40:00.284Z,12.70
2019-05-12T11:42:27.121Z,14.03
2019-05-12T11:44:54.059Z,17.00
2019-05-12T11:47:24.176Z,22.05
2019-05-12T11:49:49.379Z,29.05
2019-05-12T11:52:19.269Z,30.65
2019-05-12T11:54:47.135Z,29.25
2019-05-12T11:57:13.357Z,28.98
2019-05-12T11:59:40.351Z,29.65
2019-05-12T12:02:07.168Z,28.05
2019-05-12T12:04:34.074Z,26.87
2019-05-12T12:07:00.956Z,27.73
2019-05-12T12:09:27.798Z,30.35
2019-05-12T12:12:02.479Z,32.35
2019-05-12T12:14:23.817Z,30.55
2019-05-12T12:16:51.609Z,25.80
2019-05-12T12:19:19.162Z,28.45
2019-05-12T12:21:49.900Z,26.82
2019-05-12T12:24:14.480Z,26.00
2019-05-12T12:26:41.524Z,23.77
2019-05-12T12:29:08.377Z,25.97
2019-05-12T12:31:38.794Z,25.60
2019-05-12T12:34:03.690Z,25.82
2019-05-12T12:36:30.536Z,25.08
2019-05-12T12:38:57.369Z,24.63
2019-05-12T12:41:24.218Z,24.63
2019-05-12T12:43:51.053Z,21.17
2019-05-12T12:46:21.429Z,21.02
2019-05-12T12:48:46.332Z,20.80
2019-05-12T12:51:17.236Z,20.33
2019-05-12T12:53:43.717Z,19.70
2019-05-12T12:56:10.079Z,19.32
2019-05-12T12:58:36.919Z,19.10
2019-05-12T13:01:03.871Z,17.77
2019-05-12T13:03:31.420Z,17.23
2019-05-12T13:05:58.164Z,15.33
2019-05-12T13:08:25.011Z,15.07
2019-05-12T13:10:54.094Z,17.23
2019-05-12T13:13:20.430Z,14.30
2019-05-12T13:15:47.266Z,14.90
2019-05-12T13:18:18.064Z,16.33
2019-05-12T13:20:43.544Z,15.90
2019-05-12T13:23:10.429Z,14.83
2019-05-12T13:25:38.849Z,14.23
2019-05-12T13:28:10.329Z,14.20
2019-05-12T13:30:45.537Z,14.83
2019-05-12T13:33:03.575Z,13.20
2019-05-12T13:35:30.542Z,13.10
2019-05-12T13:38:00.468Z,12.23
2019-05-12T13:40:29.829Z,12.10
2019-05-12T13:42:54.681Z,12.50
2019-05-12T13:45:21.450Z,10.73
2019-05-12T13:47:48.394Z,11.47
2019-05-12T13:50:21.815Z,11.53
2019-05-12T13:52:43.719Z,11.80
2019-05-12T13:55:13.238Z,11.30
2019-05-12T13:57:46.206Z,11.27
2019-05-12T14:00:10.612Z,10.27
2019-05-12T14:02:36.409Z,10.93
2019-05-12T14:05:06.971Z,12.10
2019-05-12T14:07:34.378Z,11.43
2019-05-12T14:10:00.114Z,10.07
2019-05-12T14:12:26.951Z,10.90
2019-05-12T14:14:53.698Z,12.00
2019-05-12T14:17:20.587Z,10.73
2019-05-12T14:19:47.374Z,12.20
2019-05-12T14:22:21.173Z,10.93
2019-05-12T14:24:46.700Z,13.20
2019-05-12T14:27:11.174Z,13.93
2019-05-12T14:29:38.021Z,12.87
2019-05-12T14:32:05.465Z,11.23
2019-05-12T14:34:33.994Z,12.53
2019-05-12T14:37:06.840Z,12.90
2019-05-12T14:39:29.289Z,11.80
2019-05-12T14:41:56.118Z,12.37
2019-05-12T14:44:23.714Z,12.60
2019-05-12T14:46:50.890Z,12.80
2019-05-12T14:49:20.186Z,11.03
2019-05-12T14:51:46.457Z,12.03
2019-05-12T14:54:13.505Z,11.47
2019-05-12T14:56:44.780Z,10.57
2019-05-12T14:59:09.024Z,9.57
2019-05-12T15:01:51.634Z,12.53
2019-05-12T15:04:05.245Z,11.37
2019-05-12T15:06:34.011Z,9.97
2019-05-12T15:09:00.894Z,12.00
2019-05-12T15:11:27.739Z,11.47
2019-05-12T15:13:54.576Z,10.73
2019-05-12T15:16:23.638Z,10.20
2019-05-12T15:18:50.259Z,12.40
2019-05-12T15:21:21.304Z,13.57
2019-05-12T15:23:45.638Z,13.60
2019-05-12T15:26:15.786Z,11.93
2019-05-12T15:28:40.957Z,13.73
2019-05-12T15:31:09.586Z,12.23
2019-05-12T15:33:36.379Z,11.90
2019-05-12T15:36:04.622Z,13.10
2019-05-12T15:38:34.045Z,11.17
2019-05-12T15:41:00.185Z,11.30
2019-05-12T15:43:27.021Z,10.20
2019-05-12T15:45:55.384Z,11.30
2019-05-12T15:48:25.608Z,11.40
2019-05-12T15:50:50.822Z,10.60
2019-05-12T15:53:22.106Z,12.33
2019-05-12T15:55:49.783Z,11.57
2019-05-12T15:58:15.021Z,12.73
2019-05-12T16:00:43.841Z,15.63
2019-05-12T16:03:10.359Z,14.93
2019-05-12T16:05:37.299Z,12.97
2019-05-12T16:08:04.115Z,13.07
2019-05-12T16:10:30.892Z,13.27
2019-05-12T16:12:57.721Z,13.30
2019-05-12T16:15:24.623Z,15.07
2019-05-12T16:17:51.405Z,13.13
2019-05-12T16:20:18.256Z,14.53
2019-05-12T16:22:45.526Z,13.27
2019-05-12T16:25:14.825Z,12.43
2019-05-12T16:27:40.822Z,13.23
2019-05-12T16:30:07.662Z,14.50
2019-05-12T16:32:42.690Z,15.93
2019-05-12T16:35:07.163Z,15.00
2019-05-12T16:37:34.629Z,15.53
2019-05-12T16:39:59.863Z,14.50
2019-05-12T16:42:26.682Z,16.03
2019-05-12T16:44:56.174Z,13.87
2019-05-12T16:47:27.307Z,16.20
2019-05-12T16:49:50.489Z,16.47
2019-05-12T16:52:17.746Z,14.13
2019-05-12T16:54:44.634Z,15.37
2019-05-12T16:57:15.384Z,12.73
2019-05-12T16:59:40.010Z,15.47
2019-05-12T17:02:09.757Z,13.97
2019-05-12T17:04:35.381Z,13.73
2019-05-12T17:07:02.754Z,13.37
2019-05-12T17:09:29.803Z,14.70
2019-05-12T17:11:56.799Z,14.03
2019-05-12T17:14:23.802Z,14.07
2019-05-12T17:16:50.559Z,14.63
2019-05-12T17:19:17.410Z,14.40
2019-05-12T17:21:49.372Z,15.50
2019-05-12T17:24:14.627Z,12.90
2019-05-12T17:26:43.966Z,13.30
2019-05-12T17:29:10.705Z,14.10
2019-05-12T17:31:37.747Z,13.10
2019-05-12T17:34:08.884Z,13.03
2019-05-12T17:36:34.286Z,12.30
2019-05-12T17:39:01.568Z,12.93
2019-05-12T17:41:31.381Z,12.20
2019-05-12T17:44:01.334Z,13.73
2019-05-12T17:46:25.253Z,14.23
2019-05-12T17:48:53.242Z,14.93
2019-05-12T17:51:25.727Z,16.13
2019-05-12T17:53:49.558Z,15.30
2019-05-12T17:56:16.828Z,11.87
2019-05-12T17:58:47.470Z,13.47
2019-05-12T18:01:14.313Z,11.57
2019-05-12T18:03:48.663Z,13.23
2019-05-12T18:06:11.226Z,10.93
2019-05-12T18:08:38.771Z,11.13
2019-05-12T18:11:11.333Z,12.80
2019-05-12T18:13:34.611Z,10.37
2019-05-12T18:16:05.294Z,10.47
2019-05-12T18:18:32.603Z,11.33
2019-05-12T18:20:59.602Z,11.33
2019-05-12T18:23:30.359Z,11.93
2019-05-12T18:25:54.791Z,11.30
2019-05-12T18:28:27.092Z,9.37
2019-05-12T18:30:50.211Z,9.73
2019-05-12T18:33:29.540Z,8.83
2019-05-12T18:35:45.538Z,7.93
2019-05-12T18:38:18.215Z,8.27
2019-05-12T18:40:40.850Z,8.27
2019-05-12T18:43:07.693Z,7.13
2019-05-12T18:45:34.438Z,8.83
2019-05-12T18:48:01.347Z,6.67
2019-05-12T18:50:31.447Z,8.20
2019-05-12T18:52:56.908Z,7.83
2019-05-12T18:55:23.716Z,8.10
2019-05-12T18:57:50.695Z,7.90
2019-05-12T19:00:17.531Z,8.63
2019-05-12T19:02:44.378Z,8.93
2019-05-12T19:05:12.830Z,8.23
2019-05-12T19:07:40.274Z,7.93
2019-05-12T19:10:07.055Z,7.80
2019-05-12T19:12:35.654Z,8.07
2019-05-12T19:15:04.571Z,8.03
2019-05-12T19:17:30.852Z,7.07
2019-05-12T19:20:00.031Z,6.50
2019-05-12T19:22:26.172Z,8.37
2019-05-12T19:24:56.713Z,7.40
2019-05-12T19:27:21.394Z,8.33
2019-05-12T19:29:49.246Z,8.17
2019-05-12T19:32:16.202Z,7.17
2019-05-12T19:34:43.344Z,8.20
2019-05-12T19:37:14.106Z,7.60
2019-05-12T19:39:40.004Z,8.63
2019-05-12T19:42:10.467Z,7.33
2019-05-12T19:44:35.293Z,8.67
2019-05-12T19:47:02.073Z,7.07
2019-05-12T19:49:43.489Z,9.47
2019-05-12T19:51:57.401Z,7.73
2019-05-12T19:54:27.982Z,7.93
2019-05-12T19:56:53.728Z,7.17
2019-05-12T19:59:20.715Z,7.03
2019-05-12T20:01:47.522Z,6.73
2019-05-12T20:04:28.793Z,6.57
2019-05-12T20:06:43.967Z,6.83
2019-05-12T20:09:11.196Z,5.67
2019-05-12T20:11:39.077Z,5.13
2019-05-12T20:14:09.920Z,6.53
2019-05-12T20:16:34.716Z,6.63
2019-05-12T20:19:04.131Z,5.20
2019-05-12T20:21:31.368Z,6.13
2019-05-12T20:23:58.206Z,7.27
2019-05-12T20:26:25.047Z,5.83
2019-05-12T20:28:53.411Z,6.10
2019-05-12T20:31:23.665Z,5.93
2019-05-12T20:33:48.850Z,4.57
2019-05-12T20:36:20.737Z,5.53
2019-05-12T20:38:44.595Z,5.63
2019-05-12T20:41:21.884Z,5.97
2019-05-12T20:43:43.605Z,4.97
2019-05-12T20:46:15.833Z,4.80
2019-05-12T20:48:37.743Z,5.43
2019-05-12T20:51:08.620Z,4.17
2019-05-12T20:53:36.302Z,4.70
2019-05-12T20:56:03.608Z,4.83
2019-05-12T20:58:37.527Z,4.83
2019-05-12T21:01:01.641Z,4.67
2019-05-12T21:03:27.130Z,4.10
2019-05-12T21:05:59.106Z,4.33
2019-05-12T21:08:23.651Z,4.50
2019-05-12T21:10:50.629Z,4.17
2019-05-12T21:13:20.226Z,4.33
2019-05-12T21:15:45.999Z,4.43
2019-05-12T21:18:14.684Z,3.90
2019-05-12T21:20:46.428Z,3.67
2019-05-12T21:23:09.749Z,3.83
2019-05-12T21:25:36.691Z,3.60
2019-05-12T21:28:07.718Z,3.80
2019-05-12T21:30:33.829Z,4.73
2019-05-12T21:33:01.482Z,3.83
2019-05-12T21:35:31.766Z,4.20
2019-05-12T21:37:56.842Z,4.57
2019-05-12T21:40:30.465Z,4.80
2019-05-12T21:42:53.692Z,3.77
2019-05-12T21:45:26.723Z,4.20
2019-05-12T21:47:49.120Z,3.70
2019-05-12T21:50:15.859Z,3.83
2019-05-12T21:52:44.623Z,4.83
2019-05-12T21:55:15.384Z,4.50
2019-05-12T21:57:39.660Z,4.00
2019-05-12T22:00:10.601Z,3.60
2019-05-12T22:02:35.087Z,3.50
2019-05-12T22:05:04.020Z,3.60
2019-05-12T22:07:35.575Z,3.27
2019-05-12T22:09:58.848Z,3.73
2019-05-12T22:12:28.469Z,2.93
2019-05-12T22:14:54.343Z,3.73
2019-05-12T22:17:23.854Z,3.37
2019-05-12T22:19:49.894Z,3.47
2019-05-12T22:22:19.507Z,3.13
2019-05-12T22:24:45.162Z,3.77
2019-05-12T22:27:16.163Z,3.93
2019-05-12T22:29:40.379Z,3.23
2019-05-12T22:32:07.171Z,3.40
2019-05-12T22:34:39.769Z,4.13
2019-05-12T22:37:03.905Z,3.40
2019-05-12T22:39:33.824Z,3.83
2019-05-12T22:41:59.402Z,4.20
2019-05-12T22:44:26.248Z,4.00
2019-05-12T22:46:54.058Z,3.20
2019-05-12T22:49:21.318Z,3.10
2019-05-12T22:51:56.571Z,3.20
2019-05-12T22:54:16.890Z,3.47
2019-05-12T22:56:44.195Z,3.43
2019-05-12T22:59:11.080Z,2.93
2019-05-12T23:01:41.597Z,3.50
2019-05-12T23:04:06.407Z,2.87
2019-05-12T23:06:41.914Z,2.83
2019-05-12T23:09:01.752Z,2.83
2019-05-12T23:11:31.967Z,3.30
2019-05-12T23:13:57.056Z,3.33
2019-05-12T23:16:26.151Z,3.00
2019-05-12T23:18:53.741Z,3.70
2019-05-12T23:21:20.539Z,3.30
2019-05-12T23:23:49.974Z,3.20
2019-05-12T23:26:15.863Z,3.57
2019-05-12T23:28:46.742Z,3.33
2019-05-12T23:31:13.277Z,3.47
2019-05-12T23:33:39.559Z,2.93
2019-05-12T23:36:09.654Z,2.53
2019-05-12T23:38:34.781Z,2.80
2019-05-12T23:41:01.622Z,3.33
2019-05-12T23:43:28.366Z,3.00
2019-05-12T23:45:55.144Z,2.67
2019-05-12T23:48:21.943Z,2.60
2019-05-12T23:50:48.682Z,4.23
2019-05-12T23:53:15.522Z,3.13
2019-05-12T23:55:43.789Z,3.13
2019-05-12T23:58:10.747Z,2.83
